sensor_id;sensor_type;location;lat;lon;timestamp;P1;durP1;ratioP1;P2;durP2;ratioP2
78844;SDS011;68195;50.854;2.860;2023-05-17T00:01:53;5.45;;;2.58;;
78844;SDS011;68195;50.854;2.860;2023-05-17T00:04:22;6.40;;;2.30;;
78844;SDS011;68195;50.854;2.860;2023-05-17T00:06:47;4.47;;;2.38;;
78844;SDS011;68195;50.854;2.860;2023-05-17T00:09:13;5.28;;;2.45;;
78844;SDS011;68195;50.854;2.860;2023-05-17T00:11:38;4.78;;;2.35;;
78844;SDS011;68195;50.854;2.860;2023-05-17T00:14:06;4.05;;;2.20;;
78844;SDS011;68195;50.854;2.860;2023-05-17T00:16:31;5.38;;;2.47;;
78844;SDS011;68195;50.854;2.860;2023-05-17T00:18:57;7.72;;;2.20;;
78844;SDS011;68195;50.854;2.860;2023-05-17T00:21:24;5.22;;;2.65;;
78844;SDS011;68195;50.854;2.860;2023-05-17T00:23:51;4.45;;;2.60;;
78844;SDS011;68195;50.854;2.860;2023-05-17T00:26:17;4.18;;;2.88;;
78844;SDS011;68195;50.854;2.860;2023-05-17T00:28:42;4.85;;;2.78;;
78844;SDS011;68195;50.854;2.860;2023-05-17T00:31:10;7.18;;;2.60;;
78844;SDS011;68195;50.854;2.860;2023-05-17T00:33:37;3.53;;;2.28;;
78844;SDS011;68195;50.854;2.860;2023-05-17T00:36:03;5.90;;;3.15;;
78844;SDS011;68195;50.854;2.860;2023-05-17T00:38:33;5.38;;;2.55;;
78844;SDS011;68195;50.854;2.860;2023-05-17T00:40:59;5.82;;;2.65;;
78844;SDS011;68195;50.854;2.860;2023-05-17T00:43:27;7.57;;;3.17;;
78844;SDS011;68195;50.854;2.860;2023-05-17T00:45:54;5.50;;;2.58;;
78844;SDS011;68195;50.854;2.860;2023-05-17T00:48:20;4.93;;;2.75;;
78844;SDS011;68195;50.854;2.860;2023-05-17T00:50:45;5.47;;;2.40;;
78844;SDS011;68195;50.854;2.860;2023-05-17T00:53:12;5.00;;;2.50;;
78844;SDS011;68195;50.854;2.860;2023-05-17T00:55:41;7.75;;;2.72;;
78844;SDS011;68195;50.854;2.860;2023-05-17T00:58:08;4.45;;;2.88;;
78844;SDS011;68195;50.854;2.860;2023-05-17T01:00:33;6.35;;;3.40;;
78844;SDS011;68195;50.854;2.860;2023-05-17T01:02:59;5.47;;;2.83;;
78844;SDS011;68195;50.854;2.860;2023-05-17T01:05:28;5.70;;;3.20;;
78844;SDS011;68195;50.854;2.860;2023-05-17T01:07:55;3.88;;;2.72;;
78844;SDS011;68195;50.854;2.860;2023-05-17T01:10:49;3.83;;;2.63;;
78844;SDS011;68195;50.854;2.860;2023-05-17T01:13:44;4.72;;;3.50;;
78844;SDS011;68195;50.854;2.860;2023-05-17T01:19:06;5.40;;;2.92;;
78844;SDS011;68195;50.854;2.860;2023-05-17T01:24:41;7.60;;;2.92;;
78844;SDS011;68195;50.854;2.860;2023-05-17T01:27:19;7.18;;;2.90;;
78844;SDS011;68195;50.854;2.860;2023-05-17T01:29:50;6.53;;;2.83;;
78844;SDS011;68195;50.854;2.860;2023-05-17T01:32:20;8.15;;;3.22;;
78844;SDS011;68195;50.854;2.860;2023-05-17T01:34:49;5.57;;;2.55;;
78844;SDS011;68195;50.854;2.860;2023-05-17T01:37:15;5.30;;;3.17;;
78844;SDS011;68195;50.854;2.860;2023-05-17T01:39:43;7.80;;;2.78;;
78844;SDS011;68195;50.854;2.860;2023-05-17T01:44:57;4.22;;;2.47;;
78844;SDS011;68195;50.854;2.860;2023-05-17T01:50:04;8.35;;;3.13;;
78844;SDS011;68195;50.854;2.860;2023-05-17T01:52:41;4.18;;;2.38;;
78844;SDS011;68195;50.854;2.860;2023-05-17T01:55:14;5.28;;;2.85;;
78844;SDS011;68195;50.854;2.860;2023-05-17T01:57:51;5.75;;;2.65;;
78844;SDS011;68195;50.854;2.860;2023-05-17T02:00:23;5.18;;;3.05;;
78844;SDS011;68195;50.854;2.860;2023-05-17T02:02:49;5.43;;;3.15;;
78844;SDS011;68195;50.854;2.860;2023-05-17T02:05:15;6.95;;;3.53;;
78844;SDS011;68195;50.854;2.860;2023-05-17T02:07:43;5.65;;;2.90;;
78844;SDS011;68195;50.854;2.860;2023-05-17T02:10:11;7.85;;;3.03;;
78844;SDS011;68195;50.854;2.860;2023-05-17T02:12:39;4.80;;;2.63;;
78844;SDS011;68195;50.854;2.860;2023-05-17T02:15:09;4.07;;;2.95;;
78844;SDS011;68195;50.854;2.860;2023-05-17T02:17:38;6.45;;;2.78;;
78844;SDS011;68195;50.854;2.860;2023-05-17T02:20:07;4.65;;;3.13;;
78844;SDS011;68195;50.854;2.860;2023-05-17T02:22:35;6.50;;;3.35;;
78844;SDS011;68195;50.854;2.860;2023-05-17T02:25:03;5.35;;;2.72;;
78844;SDS011;68195;50.854;2.860;2023-05-17T02:27:32;4.32;;;2.80;;
78844;SDS011;68195;50.854;2.860;2023-05-17T02:30:00;5.97;;;2.67;;
78844;SDS011;68195;50.854;2.860;2023-05-17T02:32:28;3.92;;;2.92;;
78844;SDS011;68195;50.854;2.860;2023-05-17T02:34:57;5.35;;;2.90;;
78844;SDS011;68195;50.854;2.860;2023-05-17T02:37:22;5.35;;;2.53;;
78844;SDS011;68195;50.854;2.860;2023-05-17T02:39:50;5.63;;;3.00;;
78844;SDS011;68195;50.854;2.860;2023-05-17T02:42:18;4.68;;;3.13;;
78844;SDS011;68195;50.854;2.860;2023-05-17T02:44:44;7.13;;;3.47;;
78844;SDS011;68195;50.854;2.860;2023-05-17T02:47:16;5.75;;;2.95;;
78844;SDS011;68195;50.854;2.860;2023-05-17T02:49:42;5.68;;;3.28;;
78844;SDS011;68195;50.854;2.860;2023-05-17T02:52:09;5.93;;;3.75;;
78844;SDS011;68195;50.854;2.860;2023-05-17T02:54:35;8.93;;;3.33;;
78844;SDS011;68195;50.854;2.860;2023-05-17T02:57:03;5.40;;;3.08;;
78844;SDS011;68195;50.854;2.860;2023-05-17T02:59:30;7.45;;;3.28;;
78844;SDS011;68195;50.854;2.860;2023-05-17T03:01:56;7.43;;;3.75;;
78844;SDS011;68195;50.854;2.860;2023-05-17T03:04:23;5.57;;;3.38;;
78844;SDS011;68195;50.854;2.860;2023-05-17T03:06:51;4.85;;;3.55;;
78844;SDS011;68195;50.854;2.860;2023-05-17T03:09:17;7.07;;;3.17;;
78844;SDS011;68195;50.854;2.860;2023-05-17T03:11:42;7.57;;;3.22;;
78844;SDS011;68195;50.854;2.860;2023-05-17T03:14:08;6.93;;;2.85;;
78844;SDS011;68195;50.854;2.860;2023-05-17T03:16:36;4.80;;;3.20;;
78844;SDS011;68195;50.854;2.860;2023-05-17T03:19:01;8.13;;;3.42;;
78844;SDS011;68195;50.854;2.860;2023-05-17T03:21:30;7.32;;;3.22;;
78844;SDS011;68195;50.854;2.860;2023-05-17T03:23:58;9.23;;;3.58;;
78844;SDS011;68195;50.854;2.860;2023-05-17T03:26:24;5.80;;;2.90;;
78844;SDS011;68195;50.854;2.860;2023-05-17T03:28:49;7.47;;;3.63;;
78844;SDS011;68195;50.854;2.860;2023-05-17T03:31:17;9.07;;;3.50;;
78844;SDS011;68195;50.854;2.860;2023-05-17T03:33:44;5.72;;;3.20;;
78844;SDS011;68195;50.854;2.860;2023-05-17T03:36:10;8.57;;;3.65;;
78844;SDS011;68195;50.854;2.860;2023-05-17T03:38:35;4.70;;;3.40;;
78844;SDS011;68195;50.854;2.860;2023-05-17T03:41:01;5.50;;;2.90;;
78844;SDS011;68195;50.854;2.860;2023-05-17T03:43:27;6.18;;;3.47;;
78844;SDS011;68195;50.854;2.860;2023-05-17T03:45:55;4.07;;;2.78;;
78844;SDS011;68195;50.854;2.860;2023-05-17T03:48:25;6.22;;;3.50;;
78844;SDS011;68195;50.854;2.860;2023-05-17T03:50:51;4.40;;;2.83;;
78844;SDS011;68195;50.854;2.860;2023-05-17T03:53:16;6.57;;;3.80;;
78844;SDS011;68195;50.854;2.860;2023-05-17T03:55:42;5.75;;;3.28;;
78844;SDS011;68195;50.854;2.860;2023-05-17T03:58:12;4.53;;;2.88;;
78844;SDS011;68195;50.854;2.860;2023-05-17T04:00:37;6.15;;;3.88;;
78844;SDS011;68195;50.854;2.860;2023-05-17T04:03:02;7.07;;;3.45;;
78844;SDS011;68195;50.854;2.860;2023-05-17T04:05:28;7.60;;;3.25;;
78844;SDS011;68195;50.854;2.860;2023-05-17T04:07:53;5.57;;;3.13;;
78844;SDS011;68195;50.854;2.860;2023-05-17T04:10:21;7.25;;;3.83;;
78844;SDS011;68195;50.854;2.860;2023-05-17T04:12:47;7.18;;;3.35;;
78844;SDS011;68195;50.854;2.860;2023-05-17T04:15:12;8.30;;;2.90;;
78844;SDS011;68195;50.854;2.860;2023-05-17T04:17:37;8.07;;;3.80;;
78844;SDS011;68195;50.854;2.860;2023-05-17T04:20:05;10.02;;;3.90;;
78844;SDS011;68195;50.854;2.860;2023-05-17T04:22:31;4.90;;;3.05;;
78844;SDS011;68195;50.854;2.860;2023-05-17T04:24:57;5.32;;;3.10;;
78844;SDS011;68195;50.854;2.860;2023-05-17T04:27:22;8.65;;;3.38;;
78844;SDS011;68195;50.854;2.860;2023-05-17T04:29:48;6.45;;;3.53;;
78844;SDS011;68195;50.854;2.860;2023-05-17T04:32:13;6.43;;;3.45;;
78844;SDS011;68195;50.854;2.860;2023-05-17T04:34:39;5.50;;;3.63;;
78844;SDS011;68195;50.854;2.860;2023-05-17T04:37:05;6.43;;;3.50;;
78844;SDS011;68195;50.854;2.860;2023-05-17T04:39:30;9.45;;;3.42;;
78844;SDS011;68195;50.854;2.860;2023-05-17T04:41:56;5.90;;;3.33;;
78844;SDS011;68195;50.854;2.860;2023-05-17T04:44:23;6.03;;;3.17;;
78844;SDS011;68195;50.854;2.860;2023-05-17T04:46:49;6.07;;;3.05;;
78844;SDS011;68195;50.854;2.860;2023-05-17T04:49:14;6.28;;;3.47;;
78844;SDS011;68195;50.854;2.860;2023-05-17T04:51:40;6.03;;;3.30;;
78844;SDS011;68195;50.854;2.860;2023-05-17T04:54:05;5.28;;;3.22;;
78844;SDS011;68195;50.854;2.860;2023-05-17T04:56:33;7.82;;;3.65;;
78844;SDS011;68195;50.854;2.860;2023-05-17T04:59:01;5.32;;;3.20;;
78844;SDS011;68195;50.854;2.860;2023-05-17T05:01:27;6.43;;;3.50;;
78844;SDS011;68195;50.854;2.860;2023-05-17T05:03:55;7.55;;;3.55;;
78844;SDS011;68195;50.854;2.860;2023-05-17T05:06:21;4.88;;;3.30;;
78844;SDS011;68195;50.854;2.860;2023-05-17T05:08:47;6.63;;;3.50;;
78844;SDS011;68195;50.854;2.860;2023-05-17T05:11:12;8.35;;;4.07;;
78844;SDS011;68195;50.854;2.860;2023-05-17T05:13:38;8.88;;;5.15;;
78844;SDS011;68195;50.854;2.860;2023-05-17T05:16:05;9.07;;;3.47;;
78844;SDS011;68195;50.854;2.860;2023-05-17T05:18:31;9.38;;;3.80;;
78844;SDS011;68195;50.854;2.860;2023-05-17T05:20:56;8.68;;;3.90;;
78844;SDS011;68195;50.854;2.860;2023-05-17T05:23:22;8.10;;;3.65;;
78844;SDS011;68195;50.854;2.860;2023-05-17T05:25:47;6.85;;;3.65;;
78844;SDS011;68195;50.854;2.860;2023-05-17T05:28:13;7.28;;;3.92;;
78844;SDS011;68195;50.854;2.860;2023-05-17T05:30:38;7.97;;;3.53;;
78844;SDS011;68195;50.854;2.860;2023-05-17T05:33:04;8.50;;;3.47;;
78844;SDS011;68195;50.854;2.860;2023-05-17T05:35:32;9.95;;;3.60;;
78844;SDS011;68195;50.854;2.860;2023-05-17T05:37:57;5.53;;;3.65;;
78844;SDS011;68195;50.854;2.860;2023-05-17T05:40:25;7.13;;;3.65;;
78844;SDS011;68195;50.854;2.860;2023-05-17T05:42:51;11.23;;;3.90;;
78844;SDS011;68195;50.854;2.860;2023-05-17T05:45:16;10.98;;;4.07;;
78844;SDS011;68195;50.854;2.860;2023-05-17T05:47:42;6.35;;;4.03;;
78844;SDS011;68195;50.854;2.860;2023-05-17T05:50:07;8.98;;;3.63;;
78844;SDS011;68195;50.854;2.860;2023-05-17T05:52:33;5.45;;;4.35;;
78844;SDS011;68195;50.854;2.860;2023-05-17T05:54:58;10.60;;;4.20;;
78844;SDS011;68195;50.854;2.860;2023-05-17T05:57:24;8.75;;;3.60;;
78844;SDS011;68195;50.854;2.860;2023-05-17T05:59:49;9.57;;;4.35;;
78844;SDS011;68195;50.854;2.860;2023-05-17T06:02:15;5.80;;;3.25;;
78844;SDS011;68195;50.854;2.860;2023-05-17T06:04:43;9.68;;;4.70;;
78844;SDS011;68195;50.854;2.860;2023-05-17T06:07:11;9.80;;;4.25;;
78844;SDS011;68195;50.854;2.860;2023-05-17T06:09:40;9.25;;;3.90;;
78844;SDS011;68195;50.854;2.860;2023-05-17T06:12:10;9.85;;;4.57;;
78844;SDS011;68195;50.854;2.860;2023-05-17T06:14:36;11.80;;;4.32;;
78844;SDS011;68195;50.854;2.860;2023-05-17T06:17:02;9.13;;;4.40;;
78844;SDS011;68195;50.854;2.860;2023-05-17T06:19:32;14.70;;;5.35;;
78844;SDS011;68195;50.854;2.860;2023-05-17T06:21:58;11.43;;;4.80;;
78844;SDS011;68195;50.854;2.860;2023-05-17T06:24:25;10.35;;;4.57;;
78844;SDS011;68195;50.854;2.860;2023-05-17T06:26:51;9.68;;;4.47;;
78844;SDS011;68195;50.854;2.860;2023-05-17T06:29:16;13.82;;;5.03;;
78844;SDS011;68195;50.854;2.860;2023-05-17T06:31:41;9.20;;;3.92;;
78844;SDS011;68195;50.854;2.860;2023-05-17T06:34:09;9.82;;;4.05;;
78844;SDS011;68195;50.854;2.860;2023-05-17T06:36:37;8.32;;;4.75;;
78844;SDS011;68195;50.854;2.860;2023-05-17T06:39:02;7.05;;;3.97;;
78844;SDS011;68195;50.854;2.860;2023-05-17T06:41:28;10.07;;;4.18;;
78844;SDS011;68195;50.854;2.860;2023-05-17T06:43:53;6.68;;;4.35;;
78844;SDS011;68195;50.854;2.860;2023-05-17T06:46:21;8.50;;;4.75;;
78844;SDS011;68195;50.854;2.860;2023-05-17T06:48:46;8.18;;;4.30;;
78844;SDS011;68195;50.854;2.860;2023-05-17T06:51:11;9.63;;;4.00;;
78844;SDS011;68195;50.854;2.860;2023-05-17T06:53:39;8.27;;;4.65;;
78844;SDS011;68195;50.854;2.860;2023-05-17T06:56:05;9.75;;;4.93;;
78844;SDS011;68195;50.854;2.860;2023-05-17T06:58:33;11.43;;;4.72;;
78844;SDS011;68195;50.854;2.860;2023-05-17T07:00:59;9.40;;;4.75;;
78844;SDS011;68195;50.854;2.860;2023-05-17T07:03:25;7.30;;;3.85;;
78844;SDS011;68195;50.854;2.860;2023-05-17T07:05:52;7.93;;;4.30;;
78844;SDS011;68195;50.854;2.860;2023-05-17T07:08:20;9.00;;;4.78;;
78844;SDS011;68195;50.854;2.860;2023-05-17T07:10:45;7.75;;;4.45;;
78844;SDS011;68195;50.854;2.860;2023-05-17T07:13:11;14.13;;;4.93;;
78844;SDS011;68195;50.854;2.860;2023-05-17T07:15:36;7.55;;;3.75;;
78844;SDS011;68195;50.854;2.860;2023-05-17T07:18:02;9.07;;;4.00;;
78844;SDS011;68195;50.854;2.860;2023-05-17T07:20:28;13.23;;;4.75;;
78844;SDS011;68195;50.854;2.860;2023-05-17T07:22:53;6.68;;;3.92;;
78844;SDS011;68195;50.854;2.860;2023-05-17T07:27:45;11.23;;;4.45;;
78844;SDS011;68195;50.854;2.860;2023-05-17T07:32:38;10.68;;;4.20;;
78844;SDS011;68195;50.854;2.860;2023-05-17T07:35:06;11.27;;;3.63;;
78844;SDS011;68195;50.854;2.860;2023-05-17T07:37:34;8.63;;;4.53;;
78844;SDS011;68195;50.854;2.860;2023-05-17T07:40:00;10.00;;;4.45;;
78844;SDS011;68195;50.854;2.860;2023-05-17T07:42:25;8.02;;;3.95;;
78844;SDS011;68195;50.854;2.860;2023-05-17T07:44:50;9.80;;;4.40;;
78844;SDS011;68195;50.854;2.860;2023-05-17T07:47:16;7.00;;;3.78;;
78844;SDS011;68195;50.854;2.860;2023-05-17T07:49:41;8.50;;;4.38;;
78844;SDS011;68195;50.854;2.860;2023-05-17T07:52:12;8.80;;;3.85;;
78844;SDS011;68195;50.854;2.860;2023-05-17T07:54:40;8.52;;;3.67;;
78844;SDS011;68195;50.854;2.860;2023-05-17T07:57:08;7.78;;;3.20;;
78844;SDS011;68195;50.854;2.860;2023-05-17T07:59:35;7.40;;;3.30;;
78844;SDS011;68195;50.854;2.860;2023-05-17T08:02:01;5.47;;;2.95;;
78844;SDS011;68195;50.854;2.860;2023-05-17T08:04:26;8.43;;;3.40;;
78844;SDS011;68195;50.854;2.860;2023-05-17T08:06:51;8.13;;;3.33;;
78844;SDS011;68195;50.854;2.860;2023-05-17T08:09:17;7.68;;;2.88;;
78844;SDS011;68195;50.854;2.860;2023-05-17T08:11:43;8.07;;;2.70;;
78844;SDS011;68195;50.854;2.860;2023-05-17T08:14:12;6.53;;;2.80;;
78844;SDS011;68195;50.854;2.860;2023-05-17T08:16:39;10.27;;;3.40;;
78844;SDS011;68195;50.854;2.860;2023-05-17T08:19:13;6.47;;;2.97;;
78844;SDS011;68195;50.854;2.860;2023-05-17T08:21:39;8.30;;;3.90;;
78844;SDS011;68195;50.854;2.860;2023-05-17T08:24:06;8.43;;;3.22;;
78844;SDS011;68195;50.854;2.860;2023-05-17T08:26:31;10.82;;;3.35;;
78844;SDS011;68195;50.854;2.860;2023-05-17T08:29:00;7.65;;;2.92;;
78844;SDS011;68195;50.854;2.860;2023-05-17T08:31:26;7.88;;;2.90;;
78844;SDS011;68195;50.854;2.860;2023-05-17T08:33:52;6.97;;;3.53;;
78844;SDS011;68195;50.854;2.860;2023-05-17T08:38:42;7.73;;;2.90;;
78844;SDS011;68195;50.854;2.860;2023-05-17T08:41:08;5.97;;;2.92;;
78844;SDS011;68195;50.854;2.860;2023-05-17T08:45:59;5.53;;;3.28;;
78844;SDS011;68195;50.854;2.860;2023-05-17T08:48:28;10.68;;;3.70;;
78844;SDS011;68195;50.854;2.860;2023-05-17T08:50:56;10.10;;;3.88;;
78844;SDS011;68195;50.854;2.860;2023-05-17T08:53:23;9.00;;;3.40;;
78844;SDS011;68195;50.854;2.860;2023-05-17T08:55:50;8.05;;;3.72;;
78844;SDS011;68195;50.854;2.860;2023-05-17T08:58:24;7.13;;;3.85;;
78844;SDS011;68195;50.854;2.860;2023-05-17T09:00:55;9.65;;;3.83;;
78844;SDS011;68195;50.854;2.860;2023-05-17T09:03:23;7.53;;;3.58;;
78844;SDS011;68195;50.854;2.860;2023-05-17T09:05:50;6.80;;;3.60;;
78844;SDS011;68195;50.854;2.860;2023-05-17T09:08:21;9.93;;;4.30;;
78844;SDS011;68195;50.854;2.860;2023-05-17T09:10:47;8.13;;;3.78;;
78844;SDS011;68195;50.854;2.860;2023-05-17T09:13:17;7.47;;;3.50;;
78844;SDS011;68195;50.854;2.860;2023-05-17T09:18:12;8.68;;;3.65;;
78844;SDS011;68195;50.854;2.860;2023-05-17T09:20:38;6.63;;;3.35;;
78844;SDS011;68195;50.854;2.860;2023-05-17T09:23:09;8.02;;;3.83;;
78844;SDS011;68195;50.854;2.860;2023-05-17T09:25:37;6.55;;;3.40;;
78844;SDS011;68195;50.854;2.860;2023-05-17T09:28:13;7.85;;;3.25;;
78844;SDS011;68195;50.854;2.860;2023-05-17T09:35:32;9.50;;;3.50;;
78844;SDS011;68195;50.854;2.860;2023-05-17T09:38:08;9.98;;;3.38;;
78844;SDS011;68195;50.854;2.860;2023-05-17T09:40:44;9.65;;;3.30;;
78844;SDS011;68195;50.854;2.860;2023-05-17T09:43:11;6.50;;;3.65;;
78844;SDS011;68195;50.854;2.860;2023-05-17T09:48:12;8.52;;;3.60;;
78844;SDS011;68195;50.854;2.860;2023-05-17T09:50:49;6.68;;;2.95;;
78844;SDS011;68195;50.854;2.860;2023-05-17T09:53:29;9.43;;;3.28;;
78844;SDS011;68195;50.854;2.860;2023-05-17T09:55:56;5.95;;;3.38;;
78844;SDS011;68195;50.854;2.860;2023-05-17T09:58:24;7.65;;;3.30;;
78844;SDS011;68195;50.854;2.860;2023-05-17T10:01:00;7.82;;;3.05;;
78844;SDS011;68195;50.854;2.860;2023-05-17T10:03:31;7.72;;;3.10;;
78844;SDS011;68195;50.854;2.860;2023-05-17T10:08:30;8.50;;;3.13;;
78844;SDS011;68195;50.854;2.860;2023-05-17T10:11:02;5.63;;;3.17;;
78844;SDS011;68195;50.854;2.860;2023-05-17T10:13:46;6.90;;;2.75;;
78844;SDS011;68195;50.854;2.860;2023-05-17T10:16:19;8.63;;;2.58;;
78844;SDS011;68195;50.854;2.860;2023-05-17T10:18:47;7.82;;;3.03;;
78844;SDS011;68195;50.854;2.860;2023-05-17T10:21:16;6.82;;;3.22;;
78844;SDS011;68195;50.854;2.860;2023-05-17T10:26:08;7.97;;;2.80;;
78844;SDS011;68195;50.854;2.860;2023-05-17T10:31:03;5.90;;;2.67;;
78844;SDS011;68195;50.854;2.860;2023-05-17T10:33:30;9.95;;;3.33;;
78844;SDS011;68195;50.854;2.860;2023-05-17T10:35:57;7.45;;;2.72;;
78844;SDS011;68195;50.854;2.860;2023-05-17T10:38:24;7.20;;;2.72;;
78844;SDS011;68195;50.854;2.860;2023-05-17T10:40:51;7.80;;;2.95;;
78844;SDS011;68195;50.854;2.860;2023-05-17T10:43:20;6.18;;;2.70;;
78844;SDS011;68195;50.854;2.860;2023-05-17T10:45:48;8.40;;;3.17;;
78844;SDS011;68195;50.854;2.860;2023-05-17T10:48:17;4.82;;;2.70;;
78844;SDS011;68195;50.854;2.860;2023-05-17T10:53:13;9.35;;;3.33;;
78844;SDS011;68195;50.854;2.860;2023-05-17T10:55:41;4.57;;;2.67;;
78844;SDS011;68195;50.854;2.860;2023-05-17T11:00:50;5.88;;;2.78;;
78844;SDS011;68195;50.854;2.860;2023-05-17T11:03:19;7.63;;;3.38;;
78844;SDS011;68195;50.854;2.860;2023-05-17T11:09:04;7.80;;;3.20;;
78844;SDS011;68195;50.854;2.860;2023-05-17T11:11:32;5.50;;;3.05;;
78844;SDS011;68195;50.854;2.860;2023-05-17T11:16:35;7.90;;;3.15;;
78844;SDS011;68195;50.854;2.860;2023-05-17T11:19:05;8.05;;;3.35;;
78844;SDS011;68195;50.854;2.860;2023-05-17T11:21:31;7.88;;;3.58;;
78844;SDS011;68195;50.854;2.860;2023-05-17T11:24:00;6.15;;;3.15;;
78844;SDS011;68195;50.854;2.860;2023-05-17T11:26:33;8.18;;;3.65;;
78844;SDS011;68195;50.854;2.860;2023-05-17T11:29:05;5.43;;;3.42;;
78844;SDS011;68195;50.854;2.860;2023-05-17T11:31:32;6.22;;;3.05;;
78844;SDS011;68195;50.854;2.860;2023-05-17T11:33:59;7.50;;;3.15;;
78844;SDS011;68195;50.854;2.860;2023-05-17T11:36:27;6.85;;;3.25;;
78844;SDS011;68195;50.854;2.860;2023-05-17T11:41:35;7.13;;;3.30;;
78844;SDS011;68195;50.854;2.860;2023-05-17T11:44:11;8.05;;;3.20;;
78844;SDS011;68195;50.854;2.860;2023-05-17T11:46:38;11.93;;;4.57;;
78844;SDS011;68195;50.854;2.860;2023-05-17T11:49:07;6.13;;;3.60;;
78844;SDS011;68195;50.854;2.860;2023-05-17T11:51:36;8.40;;;2.97;;
78844;SDS011;68195;50.854;2.860;2023-05-17T11:54:04;7.22;;;2.75;;
78844;SDS011;68195;50.854;2.860;2023-05-17T11:56:34;8.73;;;3.10;;
78844;SDS011;68195;50.854;2.860;2023-05-17T12:01:40;6.95;;;2.92;;
78844;SDS011;68195;50.854;2.860;2023-05-17T12:04:09;6.55;;;2.38;;
78844;SDS011;68195;50.854;2.860;2023-05-17T12:09:03;6.22;;;2.60;;
78844;SDS011;68195;50.854;2.860;2023-05-17T12:11:32;6.22;;;2.40;;
78844;SDS011;68195;50.854;2.860;2023-05-17T12:14:03;6.82;;;2.38;;
78844;SDS011;68195;50.854;2.860;2023-05-17T12:18:54;6.72;;;3.35;;
78844;SDS011;68195;50.854;2.860;2023-05-17T12:21:22;4.68;;;2.42;;
78844;SDS011;68195;50.854;2.860;2023-05-17T12:26:21;7.43;;;2.50;;
78844;SDS011;68195;50.854;2.860;2023-05-17T12:31:32;4.30;;;2.42;;
78844;SDS011;68195;50.854;2.860;2023-05-17T12:34:00;9.05;;;2.90;;
78844;SDS011;68195;50.854;2.860;2023-05-17T12:36:27;8.52;;;2.58;;
78844;SDS011;68195;50.854;2.860;2023-05-17T12:38:54;7.88;;;2.92;;
78844;SDS011;68195;50.854;2.860;2023-05-17T12:41:20;7.53;;;2.38;;
78844;SDS011;68195;50.854;2.860;2023-05-17T12:43:52;7.38;;;2.55;;
78844;SDS011;68195;50.854;2.860;2023-05-17T12:48:46;4.55;;;2.30;;
78844;SDS011;68195;50.854;2.860;2023-05-17T12:53:54;3.63;;;2.40;;
78844;SDS011;68195;50.854;2.860;2023-05-17T12:56:23;7.25;;;2.25;;
78844;SDS011;68195;50.854;2.860;2023-05-17T13:01:34;6.30;;;2.25;;
78844;SDS011;68195;50.854;2.860;2023-05-17T13:04:04;8.52;;;3.40;;
78844;SDS011;68195;50.854;2.860;2023-05-17T13:09:16;6.30;;;2.53;;
78844;SDS011;68195;50.854;2.860;2023-05-17T13:12:05;8.45;;;2.42;;
78844;SDS011;68195;50.854;2.860;2023-05-17T13:14:32;8.38;;;2.78;;
78844;SDS011;68195;50.854;2.860;2023-05-17T13:17:08;6.07;;;1.90;;
78844;SDS011;68195;50.854;2.860;2023-05-17T13:19:36;7.97;;;2.03;;
78844;SDS011;68195;50.854;2.860;2023-05-17T13:22:03;4.03;;;2.00;;
78844;SDS011;68195;50.854;2.860;2023-05-17T13:24:32;7.60;;;2.58;;
78844;SDS011;68195;50.854;2.860;2023-05-17T13:26:59;6.90;;;2.05;;
78844;SDS011;68195;50.854;2.860;2023-05-17T13:31:50;7.15;;;2.65;;
78844;SDS011;68195;50.854;2.860;2023-05-17T13:34:18;10.70;;;2.42;;
78844;SDS011;68195;50.854;2.860;2023-05-17T13:36:46;5.53;;;2.28;;
78844;SDS011;68195;50.854;2.860;2023-05-17T13:39:12;5.15;;;2.05;;
78844;SDS011;68195;50.854;2.860;2023-05-17T13:44:04;6.53;;;2.55;;
78844;SDS011;68195;50.854;2.860;2023-05-17T13:48:55;5.15;;;2.70;;
78844;SDS011;68195;50.854;2.860;2023-05-17T13:51:20;4.97;;;2.00;;
78844;SDS011;68195;50.854;2.860;2023-05-17T13:56:11;6.90;;;2.20;;
78844;SDS011;68195;50.854;2.860;2023-05-17T13:58:39;6.13;;;2.38;;
78844;SDS011;68195;50.854;2.860;2023-05-17T14:03:31;6.10;;;2.25;;
78844;SDS011;68195;50.854;2.860;2023-05-17T14:08:24;4.60;;;1.90;;
78844;SDS011;68195;50.854;2.860;2023-05-17T14:13:15;5.47;;;2.43;;
78844;SDS011;68195;50.854;2.860;2023-05-17T14:15:46;8.60;;;2.35;;
78844;SDS011;68195;50.854;2.860;2023-05-17T14:18:11;4.20;;;2.15;;
78844;SDS011;68195;50.854;2.860;2023-05-17T14:23:02;5.83;;;1.60;;
78844;SDS011;68195;50.854;2.860;2023-05-17T14:25:30;3.60;;;1.85;;
78844;SDS011;68195;50.854;2.860;2023-05-17T14:30:23;5.53;;;2.15;;
78844;SDS011;68195;50.854;2.860;2023-05-17T14:35:14;9.40;;;2.10;;
78844;SDS011;68195;50.854;2.860;2023-05-17T14:37:41;4.15;;;1.70;;
78844;SDS011;68195;50.854;2.860;2023-05-17T14:42:34;5.93;;;2.10;;
78844;SDS011;68195;50.854;2.860;2023-05-17T14:47:28;8.65;;;2.63;;
78844;SDS011;68195;50.854;2.860;2023-05-17T14:52:18;7.63;;;2.50;;
78844;SDS011;68195;50.854;2.860;2023-05-17T14:57:12;6.25;;;2.08;;
78844;SDS011;68195;50.854;2.860;2023-05-17T14:59:45;6.65;;;2.25;;
78844;SDS011;68195;50.854;2.860;2023-05-17T15:02:10;6.90;;;2.15;;
78844;SDS011;68195;50.854;2.860;2023-05-17T15:07:03;7.18;;;2.45;;
78844;SDS011;68195;50.854;2.860;2023-05-17T15:09:29;8.07;;;2.50;;
78844;SDS011;68195;50.854;2.860;2023-05-17T15:12:00;5.40;;;2.05;;
78844;SDS011;68195;50.854;2.860;2023-05-17T15:14:25;5.93;;;2.13;;
78844;SDS011;68195;50.854;2.860;2023-05-17T15:19:19;8.75;;;2.58;;
78844;SDS011;68195;50.854;2.860;2023-05-17T15:21:44;5.60;;;2.28;;
78844;SDS011;68195;50.854;2.860;2023-05-17T15:24:12;8.60;;;2.80;;
78844;SDS011;68195;50.854;2.860;2023-05-17T15:29:03;4.97;;;2.37;;
78844;SDS011;68195;50.854;2.860;2023-05-17T15:33:57;5.13;;;2.40;;
78844;SDS011;68195;50.854;2.860;2023-05-17T15:36:24;7.55;;;2.50;;
78844;SDS011;68195;50.854;2.860;2023-05-17T15:41:17;4.88;;;2.10;;
78844;SDS011;68195;50.854;2.860;2023-05-17T15:43:48;3.35;;;2.00;;
78844;SDS011;68195;50.854;2.860;2023-05-17T15:46:13;6.55;;;2.25;;
78844;SDS011;68195;50.854;2.860;2023-05-17T15:51:04;4.87;;;2.00;;
78844;SDS011;68195;50.854;2.860;2023-05-17T15:53:31;5.53;;;2.20;;
78844;SDS011;68195;50.854;2.860;2023-05-17T15:55:57;4.05;;;2.13;;
78844;SDS011;68195;50.854;2.860;2023-05-17T16:00:48;6.13;;;2.25;;
78844;SDS011;68195;50.854;2.860;2023-05-17T16:05:41;5.30;;;1.83;;
78844;SDS011;68195;50.854;2.860;2023-05-17T16:10:36;6.43;;;1.85;;
78844;SDS011;68195;50.854;2.860;2023-05-17T16:15:28;6.07;;;1.95;;
78844;SDS011;68195;50.854;2.860;2023-05-17T16:20:19;4.33;;;2.00;;
78844;SDS011;68195;50.854;2.860;2023-05-17T16:22:46;4.82;;;2.08;;
78844;SDS011;68195;50.854;2.860;2023-05-17T16:25:21;8.07;;;2.67;;
78844;SDS011;68195;50.854;2.860;2023-05-17T16:27:50;7.88;;;2.10;;
78844;SDS011;68195;50.854;2.860;2023-05-17T16:30:16;6.75;;;2.30;;
78844;SDS011;68195;50.854;2.860;2023-05-17T16:32:42;6.25;;;1.98;;
78844;SDS011;68195;50.854;2.860;2023-05-17T16:35:08;7.20;;;2.10;;
78844;SDS011;68195;50.854;2.860;2023-05-17T16:40:02;6.72;;;2.40;;
78844;SDS011;68195;50.854;2.860;2023-05-17T16:44:54;7.57;;;2.05;;
78844;SDS011;68195;50.854;2.860;2023-05-17T16:49:47;6.97;;;2.03;;
78844;SDS011;68195;50.854;2.860;2023-05-17T16:54:40;6.00;;;2.00;;
78844;SDS011;68195;50.854;2.860;2023-05-17T16:57:09;8.00;;;1.83;;
78844;SDS011;68195;50.854;2.860;2023-05-17T17:02:00;5.72;;;2.00;;
78844;SDS011;68195;50.854;2.860;2023-05-17T17:06:50;7.63;;;2.03;;
78844;SDS011;68195;50.854;2.860;2023-05-17T17:09:18;5.30;;;1.83;;
78844;SDS011;68195;50.854;2.860;2023-05-17T17:14:09;8.07;;;2.03;;
78844;SDS011;68195;50.854;2.860;2023-05-17T17:19:03;5.97;;;2.08;;
78844;SDS011;68195;50.854;2.860;2023-05-17T17:24:00;5.55;;;1.75;;
78844;SDS011;68195;50.854;2.860;2023-05-17T17:26:27;4.35;;;1.83;;
78844;SDS011;68195;50.854;2.860;2023-05-17T17:28:55;4.15;;;1.63;;